Blairsden, California
Current Conditions -  °F | °C
As of 9:04 PM on Sunday 21 Dec 2014 (Local Time) from KBLU Reporting Station
Scattered Clouds Scattered Clouds  
Wind Chill: 46°   Ceiling: Unl
Heat Index: 46°   Visibility: 10mi
Dew Point: 41°   Wind: 3mph
Humidity: 83%   Direction: 330°NNW
Pressure: 30.34"   Gusts: NA
Location:  39.7722°N, 120.711°W
Report Text: KBLU 220504Z AUTO 33003KT 10SM SCT012 08/05 A3034 RMK AO2 T00780050
Loading
Personal Weather Stations






























Interactive Weather Map New forecast layout! Learn more

10-Day Weather Forecast

Advertisements
Track Severe Weather on mobile